Aeroporto :
LOGIN :

Iscrizione | Disclaimer

   EN    FR    IT 

 










Sommario :    VFR   VFR Marginale   IFR   IFR Intensivo   IFR Molto Intensivo
Visibilità : 
Base nubi : 
>= 8 km
>= 3000ft
5 / 8 km
1000 / 3000 ft
1500m / 5 km
500 / 1000 ft
800 / 1500m
200 / 500 ft
< 800m
< 200 ft
Simboli :   Temporali  Nebbia  Neve Forte  Precipitazioni Forti  Vento > 20 kt
SIGMETs :   Varie  Temporali  Ghiacco  Turbolenza  Onda orograficha  Ceneri Vulcaniche






- Altitudine del aeroporto : 7 ft
- Codice IATA : ESH


EGKA - Shoreham

ULTIMO METAR :
  • 251250Z 23014KT 9999 FEW014 SCT020 08/05 Q1000

METARs OBSOLETI :
  • 251220Z 24011KT 9999 SCT014 08/06 Q1001
  • 251150Z 24014KT 8000 -SHRA FEW015CB SCT022 06/04 Q1001 RESHGS
  • 251120Z 25016KT 9999 VCSH FEW015 SCT024 10/05 Q1001
  • 251050Z 24013KT 9999 FEW011 SCT024 08/05 Q1002
  • 251020Z 24015KT 9999 FEW014 SCT023 08/05 Q1002

TAF TAF EGKA
Valido dal 25 a 12 ore il 25 a 20 ore UTC


251104Z 2512/2520 25013KT 9999 SCT030
TEMPO 2512/2520 26018G28KT
PROB30
TEMPO 2512/2515 6000 SHRA SHGS
TEMPO 2515/2520 6000 SHRA SHGS
PROB40
TEMPO 2515/2518 3000 +SHRAGS BKN014CB
ATIS : +44 1273 467 372



MetMap, La meteo Aeronautica in un colpo d'occhio ! - Copyright ORBIFLY Dicembre 2007 - Disclaimer

ORBIFLY MET'MAP TEAM :

Programmazione e sviluppo : Alexandra Zaïnal
Concezione : Baudouin d'Aumeries
Aiuto per la programmazione : Marc-Olivier Méhu
Supporto tecnico e logistico : Manuel Goepfert
Aiuto per la traduzione : Arnaldo La Scala

Contatto : metmap@orbifly.com




FONTI E CREDITI :

   NOAA